createdAt,value
2023-02-22T00:00:56.520Z,99904.80
2023-02-22T00:03:29.051Z,99905.84
2023-02-22T00:05:59.764Z,99904.30
2023-02-22T00:08:30.658Z,99903.98
2023-02-22T00:11:09.745Z,99902.63
2023-02-22T00:13:38.481Z,99909.88
2023-02-22T00:16:20.869Z,99903.55
2023-02-22T00:18:52.064Z,99908.91
2023-02-22T00:21:24.162Z,99907.71
2023-02-22T00:23:54.863Z,99909.11
2023-02-22T00:26:24.960Z,99911.20
2023-02-22T00:29:12.816Z,99914.86
2023-02-22T00:31:43.544Z,99914.73
2023-02-22T00:34:12.229Z,99917.50
2023-02-22T00:36:39.519Z,99916.52
2023-02-22T00:39:07.832Z,99920.52
2023-02-22T00:41:39.713Z,99919.36
2023-02-22T00:44:10.054Z,99925.07
2023-02-22T00:46:37.287Z,99925.30
2023-02-22T00:49:09.816Z,99926.70
2023-02-22T00:51:37.543Z,99934.13
2023-02-22T00:54:25.732Z,99932.46
2023-02-22T00:56:55.520Z,99936.44
2023-02-22T00:59:22.707Z,99938.34
2023-02-22T01:01:50.668Z,99941.80
2023-02-22T01:04:19.837Z,99945.10
2023-02-22T01:06:50.544Z,99949.07
2023-02-22T01:09:27.487Z,99953.21
2023-02-22T01:11:58.294Z,99950.84
2023-02-22T01:14:28.013Z,99954.29
2023-02-22T01:16:59.457Z,99957.05
2023-02-22T01:19:32.469Z,99961.52
2023-02-22T01:22:11.375Z,99972.52
2023-02-22T01:24:58.708Z,99974.77
2023-02-22T01:27:46.516Z,99978.21
2023-02-22T01:30:35.297Z,99986.46
2023-02-22T01:33:08.631Z,99990.08
2023-02-22T01:35:47.503Z,99991.98
2023-02-22T01:38:20.567Z,99994.73
2023-02-22T01:40:51.768Z,99991.65
2023-02-22T01:43:32.277Z,99993.35
2023-02-22T01:46:23.849Z,99991.13
2023-02-22T01:49:11.937Z,99989.94
2023-02-22T01:51:45.552Z,99991.31
2023-02-22T01:54:28.017Z,99995.77
2023-02-22T01:57:14.334Z,99999.54
2023-02-22T01:59:49.875Z,100000.23
2023-02-22T02:02:32.016Z,100000.06
2023-02-22T02:05:02.893Z,100002.63
2023-02-22T02:07:32.526Z,99999.52
2023-02-22T02:10:04.978Z,100005.88
2023-02-22T02:12:42.216Z,100007.25
2023-02-22T02:15:24.637Z,100012.39
2023-02-22T02:17:57.725Z,100011.36
2023-02-22T02:20:32.608Z,100010.67
2023-02-22T02:23:12.367Z,100011.02
2023-02-22T02:26:16.929Z,100009.81
2023-02-22T02:29:09.444Z,100009.99
2023-02-22T02:32:27.139Z,100012.75
2023-02-22T02:35:00.201Z,100020.98
2023-02-22T02:37:38.325Z,100024.05
2023-02-22T02:40:19.082Z,100023.38
2023-02-22T02:42:56.095Z,100028.71
2023-02-22T02:45:42.328Z,100028.89
2023-02-22T02:48:33.994Z,100032.16
2023-02-22T02:51:06.376Z,100032.49
2023-02-22T02:53:55.290Z,100036.59
2023-02-22T02:56:36.790Z,100035.56
2023-02-22T02:59:33.206Z,100035.40
2023-02-22T03:02:41.495Z,100034.71
2023-02-22T03:05:42.586Z,100038.66
2023-02-22T03:08:18.949Z,100041.93
2023-02-22T03:10:55.201Z,100040.04
2023-02-22T03:13:42.301Z,100043.98
2023-02-22T03:16:23.031Z,100048.95
2023-02-22T03:19:04.747Z,100051.18
2023-02-22T03:21:42.153Z,100054.95
2023-02-22T03:24:25.621Z,100058.21
2023-02-22T03:27:03.104Z,100058.21
2023-02-22T03:29:36.696Z,100063.88
2023-02-22T03:32:09.080Z,100066.25
2023-02-22T03:34:53.151Z,100067.96
2023-02-22T03:37:44.964Z,100070.88
2023-02-22T03:40:18.244Z,100069.00
2023-02-22T03:42:53.996Z,100075.52
2023-02-22T03:45:25.685Z,100075.86
2023-02-22T03:47:59.841Z,100083.23
2023-02-22T03:50:47.581Z,100078.77
2023-02-22T03:53:18.847Z,100081.34
2023-02-22T03:55:52.981Z,100084.09
2023-02-22T03:58:26.506Z,100089.58
2023-02-22T04:00:57.614Z,100091.80
2023-02-22T04:03:40.532Z,100092.30
2023-02-22T04:10:09.812Z,100094.02
2023-02-22T04:12:57.712Z,100097.96
2023-02-22T04:15:28.218Z,100094.05
2023-02-22T04:18:14.325Z,100097.14
2023-02-22T04:20:41.918Z,100100.39
2023-02-22T04:23:19.836Z,100101.76
2023-02-22T04:25:50.185Z,100105.18
2023-02-22T04:28:37.695Z,100107.41
2023-02-22T04:31:10.411Z,100110.84
2023-02-22T04:33:47.046Z,100112.73
2023-02-22T04:36:18.653Z,100114.96
2023-02-22T04:38:50.610Z,100119.61
2023-02-22T04:41:25.042Z,100119.09
2023-02-22T04:44:00.238Z,100121.31
2023-02-22T04:46:31.667Z,100125.27
2023-02-22T04:49:19.251Z,100129.52
2023-02-22T04:51:51.948Z,100131.08
2023-02-22T04:54:23.411Z,100131.92
2023-02-22T04:56:56.100Z,100131.42
2023-02-22T04:59:30.842Z,100131.42
2023-02-22T05:02:03.560Z,100134.85
2023-02-22T05:04:31.155Z,100137.39
2023-02-22T05:07:09.801Z,100138.09
2023-02-22T05:09:46.950Z,100139.82
2023-02-22T05:12:16.876Z,100140.68
2023-02-22T05:14:44.718Z,100139.98
2023-02-22T05:17:32.180Z,100144.45
2023-02-22T05:20:03.151Z,100143.94
2023-02-22T05:22:32.857Z,100145.81
2023-02-22T05:25:21.839Z,100142.05
2023-02-22T05:27:53.139Z,100148.56
2023-02-22T05:30:41.279Z,100150.63
2023-02-22T05:33:18.536Z,100154.73
2023-02-22T05:35:46.436Z,100156.45
2023-02-22T05:38:33.057Z,100162.11
2023-02-22T05:41:13.842Z,100165.20
2023-02-22T05:44:03.093Z,100165.53
2023-02-22T05:46:40.573Z,100168.61
2023-02-22T05:49:08.301Z,100166.39
2023-02-22T05:51:38.105Z,100171.36
2023-02-22T05:54:15.324Z,100175.31
2023-02-22T05:56:48.168Z,100179.26
2023-02-22T05:59:24.239Z,100181.14
2023-02-22T06:02:00.613Z,100186.45
2023-02-22T06:04:49.090Z,100190.05
2023-02-22T06:07:19.379Z,100194.00
2023-02-22T06:09:46.702Z,100198.83
2023-02-22T06:12:16.550Z,100201.23
2023-02-22T06:14:54.910Z,100206.72
2023-02-22T06:17:32.368Z,100206.21
2023-02-22T06:20:10.050Z,100210.84
2023-02-22T06:22:59.026Z,100213.06
2023-02-22T06:25:46.401Z,100214.44
2023-02-22T06:28:34.072Z,100218.73
2023-02-22T06:31:01.370Z,100224.21
2023-02-22T06:33:28.464Z,100228.66
2023-02-22T06:35:55.971Z,100232.61
2023-02-22T06:38:27.863Z,100236.57
2023-02-22T06:40:56.637Z,100240.02
2023-02-22T06:43:24.513Z,100242.77
2023-02-22T06:45:51.809Z,100246.89
2023-02-22T06:48:19.457Z,100250.66
2023-02-22T06:51:08.387Z,100252.55
2023-02-22T06:53:38.853Z,100251.86
2023-02-22T06:56:06.901Z,100254.09
2023-02-22T06:58:37.076Z,100253.23
2023-02-22T07:01:07.150Z,100251.00
2023-02-22T07:03:38.117Z,100251.52
2023-02-22T07:06:05.990Z,100252.22
2023-02-22T07:08:33.377Z,100257.21
2023-02-22T07:11:00.626Z,100264.23
2023-02-22T07:13:27.994Z,100263.38
2023-02-22T07:15:55.475Z,100269.91
2023-02-22T07:18:24.290Z,100272.67
2023-02-22T07:20:51.783Z,100272.67
2023-02-22T07:23:19.861Z,100272.48
2023-02-22T07:26:07.746Z,100271.30
2023-02-22T07:28:55.532Z,100274.05
2023-02-22T07:31:39.188Z,100270.44
2023-02-22T07:34:26.860Z,100274.55
2023-02-22T07:37:04.244Z,100274.39
2023-02-22T07:39:51.730Z,100274.21
2023-02-22T07:42:30.173Z,100272.48
2023-02-22T07:44:57.595Z,100271.45
2023-02-22T07:47:24.916Z,100273.00
2023-02-22T07:50:14.694Z,100273.16
2023-02-22T07:53:03.594Z,100271.77
2023-02-22T07:55:38.476Z,100275.38
2023-02-22T07:58:18.551Z,100271.90
2023-02-22T08:01:06.508Z,100274.81
2023-02-22T15:01:22.246Z,100466.34
2023-02-22T15:03:58.877Z,100464.11
2023-02-22T15:06:51.037Z,100465.77
2023-02-22T15:09:25.744Z,100465.26
2023-02-22T15:12:13.189Z,100468.33
2023-02-22T15:14:52.548Z,100466.27
2023-02-22T15:17:39.939Z,100466.08
2023-02-22T15:20:15.975Z,100469.67
2023-02-22T15:22:53.423Z,100470.48
2023-02-22T15:25:42.251Z,100469.79
2023-02-22T15:28:18.320Z,100476.82
2023-02-22T15:30:51.082Z,100478.36
2023-02-22T15:33:24.877Z,100483.67
2023-02-22T15:35:56.612Z,100487.27
2023-02-22T15:38:31.653Z,100487.10
2023-02-22T15:41:09.556Z,100490.87
2023-02-22T15:43:44.573Z,100490.19
2023-02-22T15:46:20.929Z,100492.09
2023-02-22T15:49:20.631Z,100489.85
2023-02-22T15:51:55.009Z,100490.69
2023-02-22T15:54:44.718Z,100495.98
2023-02-22T15:57:36.156Z,100498.86
2023-02-22T16:00:33.600Z,100502.23
2023-02-22T16:03:13.508Z,100500.64
2023-02-22T16:06:01.737Z,100507.77
2023-02-22T16:08:52.625Z,100511.80
2023-02-22T16:11:44.584Z,100509.15
2023-02-22T16:14:42.710Z,100513.52
2023-02-22T16:17:31.271Z,100513.48
2023-02-22T16:20:02.351Z,100516.02
2023-02-22T16:22:40.485Z,100523.34
2023-02-22T16:25:28.253Z,100522.08
2023-02-22T16:27:58.151Z,100521.55
2023-02-22T16:30:29.530Z,100522.89
2023-02-22T16:33:13.908Z,100527.17
2023-02-22T16:35:54.113Z,100526.65
2023-02-22T16:38:38.666Z,100531.29
2023-02-22T16:41:13.919Z,100533.71
2023-02-22T16:44:01.599Z,100537.66
2023-02-22T16:46:34.841Z,100536.85
2023-02-22T16:49:12.577Z,100541.85
2023-02-22T16:52:03.636Z,100541.67
2023-02-22T16:54:52.606Z,100542.67
2023-02-22T16:57:42.876Z,100545.04
2023-02-22T17:00:14.551Z,100543.65
2023-02-22T17:03:04.122Z,100544.50
2023-02-22T17:05:51.807Z,100547.09
2023-02-22T17:08:39.539Z,100546.39
2023-02-22T17:11:27.636Z,100549.97
2023-02-22T17:14:23.334Z,100553.73
2023-02-22T17:17:13.443Z,100550.30
2023-02-22T17:19:52.287Z,100553.20
2023-02-22T17:22:39.968Z,100549.42
2023-02-22T17:25:31.167Z,100548.21
2023-02-22T17:28:18.707Z,100550.59
2023-02-22T17:31:07.334Z,100546.31
2023-02-22T17:33:57.657Z,100547.86
2023-02-22T17:36:39.309Z,100545.45
2023-02-22T17:39:10.793Z,100547.48
2023-02-22T17:41:48.102Z,100545.59
2023-02-22T17:44:18.172Z,100545.55
2023-02-22T17:46:45.371Z,100545.85
2023-02-22T17:49:33.057Z,100543.61
2023-02-22T17:52:15.830Z,100545.13
2023-02-22T17:54:43.619Z,100549.71
2023-02-22T17:57:31.035Z,100547.09
2023-02-22T18:00:24.603Z,100545.67
2023-02-22T18:03:15.911Z,100545.09
2023-02-22T18:06:04.163Z,100546.95
2023-02-22T18:08:55.787Z,100546.93
2023-02-22T18:11:44.161Z,100546.59
2023-02-22T18:14:31.498Z,100546.77
2023-02-22T18:16:59.146Z,100555.69
2023-02-22T18:19:26.380Z,100556.88
2023-02-22T18:22:00.357Z,100563.72
2023-02-22T18:24:27.721Z,100568.17
2023-02-22T18:27:15.458Z,100567.63
2023-02-22T18:29:54.454Z,100571.02
2023-02-22T18:32:31.381Z,100572.71
2023-02-22T18:35:10.431Z,100572.39
2023-02-22T18:37:46.594Z,100576.52
2023-02-22T18:40:34.044Z,100576.33
2023-02-22T18:43:21.808Z,100575.23
2023-02-22T18:46:13.692Z,100572.77
2023-02-22T18:48:56.074Z,100569.31
2023-02-22T18:51:44.990Z,100571.70
2023-02-22T18:54:14.662Z,100575.11
2023-02-22T18:57:02.021Z,100576.98
2023-02-22T18:59:50.230Z,100577.01
2023-02-22T19:02:37.791Z,100573.44
2023-02-22T19:05:14.438Z,100565.77
2023-02-22T19:08:02.683Z,100561.46
2023-02-22T19:10:40.173Z,100560.57
2023-02-22T19:13:10.910Z,100559.81
2023-02-22T19:15:38.002Z,100560.81
2023-02-22T19:18:05.630Z,100561.66
2023-02-22T19:20:33.496Z,100557.54
2023-02-22T19:23:21.148Z,100557.48
2023-02-22T19:26:09.520Z,100557.81
2023-02-22T19:28:36.999Z,100562.78
2023-02-22T19:31:29.887Z,100562.08
2023-02-22T19:34:00.837Z,100566.87
2023-02-22T19:36:50.019Z,100573.52
2023-02-22T19:39:38.797Z,100578.64
2023-02-22T19:42:26.415Z,100576.36
2023-02-22T19:45:14.112Z,100582.99
2023-02-22T19:48:01.524Z,100581.44
2023-02-22T19:50:34.444Z,100576.27
2023-02-22T19:53:05.836Z,100581.83
2023-02-22T19:55:43.884Z,100583.48
2023-02-22T19:58:14.807Z,100586.89
2023-02-22T20:00:47.152Z,100588.92
2023-02-22T20:03:23.640Z,100594.18
2023-02-22T20:06:03.696Z,100589.41
2023-02-22T20:08:51.839Z,100593.05
2023-02-22T20:11:39.675Z,100591.00
2023-02-22T20:14:28.874Z,100592.56
2023-02-22T20:17:16.575Z,100592.23
2023-02-22T20:20:05.239Z,100596.52
2023-02-22T20:22:53.012Z,100592.19
2023-02-22T20:25:41.513Z,100594.67
2023-02-22T20:28:26.070Z,100597.66
2023-02-22T20:31:13.836Z,100596.89
2023-02-22T20:34:02.879Z,100600.59
2023-02-22T20:36:35.192Z,100594.73
2023-02-22T20:39:03.514Z,100598.34
2023-02-22T20:41:36.400Z,100599.02
2023-02-22T20:44:24.487Z,100600.04
2023-02-22T20:46:56.202Z,100599.70
2023-02-22T20:49:43.627Z,100600.40
2023-02-22T20:52:31.360Z,100595.08
2023-02-22T20:55:19.445Z,100600.40
2023-02-22T20:58:07.134Z,100597.11
2023-02-22T21:00:54.876Z,100597.41
2023-02-22T21:03:36.758Z,100597.16
2023-02-22T21:06:16.858Z,100595.61
2023-02-22T21:08:51.050Z,100586.38
2023-02-22T21:11:33.510Z,100589.41
2023-02-22T21:14:02.268Z,100586.13
2023-02-22T21:16:34.042Z,100584.52
2023-02-22T21:19:26.493Z,100583.48
2023-02-22T21:22:08.460Z,100583.96
2023-02-22T21:24:56.165Z,100590.61
2023-02-22T21:27:43.602Z,100589.90
2023-02-22T21:30:32.219Z,100596.33
2023-02-22T21:33:11.483Z,100598.82
2023-02-22T21:35:43.575Z,100596.91
2023-02-22T21:38:33.283Z,100599.46
2023-02-22T21:41:03.424Z,100601.12
2023-02-22T21:43:53.434Z,100599.86
2023-02-22T21:46:25.309Z,100602.06
2023-02-22T21:49:13.957Z,100599.61
2023-02-22T21:52:01.727Z,100599.58
2023-02-22T21:54:49.578Z,100596.52
2023-02-22T21:57:37.591Z,100598.73
2023-02-22T22:00:29.406Z,100600.27
2023-02-22T22:03:12.025Z,100598.21
2023-02-22T22:05:54.310Z,100595.82
2023-02-22T22:08:46.361Z,100594.43
2023-02-22T22:11:25.096Z,100595.80
2023-02-22T22:13:58.982Z,100598.18
2023-02-22T22:16:30.470Z,100595.94
2023-02-22T22:19:21.418Z,100596.75
2023-02-22T22:22:08.068Z,100596.90
2023-02-22T22:24:55.663Z,100601.52
2023-02-22T22:27:22.807Z,100602.57
2023-02-22T22:29:51.795Z,100602.92
2023-02-22T22:32:31.286Z,100602.50
2023-02-22T22:35:14.792Z,100597.63
2023-02-22T22:38:03.283Z,100596.36
2023-02-22T22:40:53.022Z,100592.90
2023-02-22T22:43:31.742Z,100596.83
2023-02-22T22:46:21.653Z,100597.16
2023-02-22T22:49:01.043Z,100598.17
2023-02-22T22:51:48.572Z,100596.48
2023-02-22T22:54:29.119Z,100593.57
2023-02-22T22:57:17.323Z,100594.77
2023-02-22T22:59:50.164Z,100600.40
2023-02-22T23:02:30.710Z,100598.79
2023-02-22T23:05:12.334Z,100603.84
2023-02-22T23:07:42.154Z,100598.66
2023-02-22T23:10:14.925Z,100600.00
2023-02-22T23:12:42.162Z,100600.77
2023-02-22T23:15:14.127Z,100596.09
2023-02-22T23:17:45.833Z,100603.20
2023-02-22T23:20:16.457Z,100604.48
2023-02-22T23:22:47.670Z,100601.04
2023-02-22T23:25:19.947Z,100603.95
2023-02-22T23:27:58.580Z,100600.16
2023-02-22T23:30:25.928Z,100602.54
2023-02-22T23:32:54.700Z,100603.05
2023-02-22T23:35:37.823Z,100602.08
2023-02-22T23:38:08.354Z,100598.22
2023-02-22T23:40:54.342Z,100598.14
2023-02-22T23:43:42.096Z,100593.63
2023-02-22T23:46:33.152Z,100592.51
2023-02-22T23:49:21.232Z,100582.20
2023-02-22T23:52:09.889Z,100584.02
2023-02-22T23:54:44.129Z,100586.02
2023-02-22T23:57:11.769Z,100590.45
